createdAt,value
2022-12-23T00:01:17.608Z,2.27
2022-12-23T00:03:47.036Z,3.00
2022-12-23T00:06:17.370Z,2.40
2022-12-23T00:08:46.609Z,2.67
2022-12-23T00:11:16.840Z,2.33
2022-12-23T00:13:58.781Z,2.40
2022-12-23T00:16:26.968Z,2.63
2022-12-23T00:18:56.588Z,3.03
2022-12-23T00:21:24.495Z,2.77
2022-12-23T00:23:53.080Z,2.43
2022-12-23T00:26:24.687Z,2.53
2022-12-23T00:28:53.299Z,2.40
2022-12-23T00:31:21.426Z,2.83
2022-12-23T00:33:51.320Z,2.40
2022-12-23T00:36:22.512Z,2.60
2022-12-23T00:39:08.467Z,2.37
2022-12-23T00:41:54.397Z,2.27
2022-12-23T00:44:22.846Z,2.57
2022-12-23T00:46:51.062Z,2.70
2022-12-23T00:49:38.821Z,2.67
2022-12-23T00:52:11.023Z,2.93
2022-12-23T00:54:38.988Z,1.87
2022-12-23T00:57:07.303Z,2.77
2022-12-23T00:59:35.680Z,2.57
2022-12-23T01:02:21.204Z,2.50
2022-12-23T01:05:06.649Z,2.67
2022-12-23T01:07:36.176Z,2.40
2022-12-23T01:10:04.328Z,2.77
2022-12-23T01:12:32.176Z,2.27
2022-12-23T01:15:00.127Z,1.97
2022-12-23T01:17:28.029Z,1.90
2022-12-23T01:19:55.948Z,1.60
2022-12-23T01:22:23.823Z,1.50
2022-12-23T01:24:53.072Z,1.47
2022-12-23T01:27:21.033Z,1.00
2022-12-23T01:29:48.939Z,0.90
2022-12-23T01:32:16.918Z,1.10
2022-12-23T01:34:44.822Z,0.97
2022-12-23T01:37:12.785Z,0.90
2022-12-23T01:39:40.712Z,0.80
2022-12-23T01:42:31.918Z,1.00
2022-12-23T01:45:01.653Z,0.80
2022-12-23T01:47:36.799Z,0.80
2022-12-23T01:50:10.673Z,1.10
2022-12-23T01:52:44.719Z,0.90
2022-12-23T01:55:15.748Z,0.63
2022-12-23T01:57:47.628Z,0.70
2022-12-23T02:00:34.079Z,0.83
2022-12-23T02:03:19.921Z,0.70
2022-12-23T02:05:49.254Z,0.87
2022-12-23T02:08:35.776Z,0.83
2022-12-23T02:11:17.275Z,0.80
2022-12-23T02:14:17.671Z,0.90
2022-12-23T02:16:51.139Z,0.90
2022-12-23T02:19:33.325Z,1.00
2022-12-23T02:22:30.463Z,0.80
2022-12-23T02:25:39.291Z,1.40
2022-12-23T02:28:37.406Z,1.30
2022-12-23T02:31:11.790Z,1.20
2022-12-23T02:33:52.481Z,1.20
2022-12-23T02:36:30.528Z,1.57
2022-12-23T02:39:05.945Z,1.40
2022-12-23T02:41:42.411Z,1.50
2022-12-23T02:44:17.659Z,1.60
2022-12-23T02:46:49.050Z,1.40
2022-12-23T02:49:21.675Z,2.00
2022-12-23T02:51:54.109Z,1.67
2022-12-23T02:54:26.275Z,1.70
2022-12-23T02:56:56.782Z,2.00
2022-12-23T02:59:29.024Z,2.27
2022-12-23T03:02:00.899Z,2.00
2022-12-23T03:04:28.885Z,2.17
2022-12-23T03:07:01.699Z,2.10
2022-12-23T03:09:45.600Z,2.10
2022-12-23T03:12:23.667Z,2.50
2022-12-23T03:15:07.604Z,2.30
2022-12-23T03:17:54.860Z,2.23
2022-12-23T03:20:27.579Z,2.70
2022-12-23T03:23:02.607Z,2.67
2022-12-23T03:25:34.809Z,2.73
2022-12-23T03:28:08.800Z,2.50
2022-12-23T03:30:38.982Z,2.67
2022-12-23T03:33:13.842Z,2.90
2022-12-23T03:35:48.575Z,3.00
2022-12-23T03:38:20.088Z,2.50
2022-12-23T03:40:53.195Z,2.53
2022-12-23T03:43:24.330Z,2.17
2022-12-23T03:45:59.206Z,2.17
2022-12-23T03:48:34.363Z,2.20
2022-12-23T03:51:09.285Z,2.30
2022-12-23T03:53:42.994Z,1.83
2022-12-23T03:56:14.357Z,1.87
2022-12-23T03:58:46.136Z,1.67
2022-12-23T04:01:23.188Z,1.93
2022-12-23T04:04:01.519Z,1.70
2022-12-23T04:06:34.581Z,1.40
2022-12-23T04:09:03.971Z,1.40
2022-12-23T04:11:32.003Z,1.50
2022-12-23T04:13:59.955Z,1.30
2022-12-23T04:16:28.486Z,0.83
2022-12-23T04:18:57.791Z,1.10
2022-12-23T04:21:25.718Z,1.97
2022-12-23T04:23:53.821Z,1.33
2022-12-23T04:26:21.789Z,1.30
2022-12-23T04:28:49.702Z,1.30
2022-12-23T04:31:17.682Z,1.40
2022-12-23T04:33:45.684Z,1.40
2022-12-23T04:36:17.458Z,1.40
2022-12-23T04:38:45.381Z,1.57
2022-12-23T04:41:13.316Z,1.47
2022-12-23T04:43:41.211Z,1.70
2022-12-23T04:46:09.358Z,1.40
2022-12-23T04:48:37.399Z,1.40
2022-12-23T04:51:05.538Z,2.03
2022-12-23T04:53:37.311Z,1.63
2022-12-23T04:56:05.735Z,1.47
2022-12-23T04:58:33.700Z,1.23
2022-12-23T05:01:07.476Z,1.77
2022-12-23T05:03:35.794Z,1.40
2022-12-23T05:06:04.041Z,1.60
2022-12-23T05:08:32.268Z,1.33
2022-12-23T05:11:01.549Z,1.27
2022-12-23T05:13:29.455Z,1.30
2022-12-23T05:15:57.771Z,1.23
2022-12-23T05:18:25.803Z,1.30
2022-12-23T05:20:53.732Z,1.20
2022-12-23T05:23:21.935Z,1.20
2022-12-23T05:25:52.846Z,1.37
2022-12-23T05:28:22.816Z,1.37
2022-12-23T05:30:51.279Z,1.37
2022-12-23T05:33:19.205Z,1.13
2022-12-23T05:35:47.095Z,1.47
2022-12-23T05:38:14.993Z,1.17
2022-12-23T05:40:42.860Z,1.50
2022-12-23T05:43:10.945Z,1.23
2022-12-23T05:45:40.733Z,1.27
2022-12-23T05:48:08.780Z,1.60
2022-12-23T05:50:39.064Z,1.20
2022-12-23T05:53:07.420Z,1.70
2022-12-23T05:55:35.760Z,1.20
2022-12-23T05:58:03.929Z,1.57
2022-12-23T06:00:31.844Z,1.30
2022-12-23T06:03:02.312Z,1.47
2022-12-23T06:05:30.423Z,1.20
2022-12-23T06:07:58.377Z,1.30
2022-12-23T06:10:26.239Z,1.40
2022-12-23T06:12:54.117Z,1.60
2022-12-23T06:15:22.025Z,1.50
2022-12-23T06:17:50.453Z,1.33
2022-12-23T06:20:21.394Z,1.40
2022-12-23T06:22:49.362Z,1.17
2022-12-23T06:25:17.533Z,1.47
2022-12-23T06:27:45.472Z,1.03
2022-12-23T06:30:14.373Z,1.60
2022-12-23T06:32:44.597Z,1.40
2022-12-23T06:35:13.382Z,1.60
2022-12-23T06:37:42.670Z,1.60
2022-12-23T06:40:11.768Z,1.90
2022-12-23T06:42:40.796Z,2.30
2022-12-23T06:45:10.007Z,1.93
2022-12-23T06:47:37.961Z,1.70
2022-12-23T06:50:06.799Z,1.93
2022-12-23T06:52:34.628Z,1.53
2022-12-23T06:55:03.981Z,2.00
2022-12-23T06:57:31.858Z,2.10
2022-12-23T06:59:59.743Z,1.90
2022-12-23T07:02:27.973Z,1.53
2022-12-23T07:04:56.003Z,1.83
2022-12-23T07:07:23.878Z,1.77
2022-12-23T07:09:51.857Z,1.90
2022-12-23T07:12:21.141Z,2.00
2022-12-23T07:14:49.219Z,2.03
2022-12-23T07:17:17.481Z,1.90
2022-12-23T07:19:45.368Z,2.00
2022-12-23T07:22:13.423Z,2.17
2022-12-23T07:24:41.347Z,2.43
2022-12-23T07:27:09.315Z,2.10
2022-12-23T07:29:38.573Z,2.77
2022-12-23T07:32:06.815Z,2.60
2022-12-23T07:34:34.957Z,2.50
2022-12-23T07:37:02.975Z,2.87
2022-12-23T07:39:30.891Z,2.60
2022-12-23T07:42:25.099Z,2.80
2022-12-23T07:44:48.132Z,2.90
2022-12-23T07:47:16.855Z,2.53
2022-12-23T07:49:44.719Z,2.27
2022-12-23T07:52:12.618Z,2.30
2022-12-23T07:54:40.496Z,2.07
2022-12-23T07:57:08.455Z,2.30
2022-12-23T07:59:36.678Z,2.50
2022-12-23T08:02:06.051Z,1.87
2022-12-23T08:04:34.147Z,2.07
2022-12-23T08:07:02.071Z,1.93
2022-12-23T08:09:30.116Z,2.40
2022-12-23T08:11:58.037Z,2.63
2022-12-23T08:14:26.202Z,2.63
2022-12-23T08:16:54.146Z,2.63
2022-12-23T08:19:23.452Z,2.47
2022-12-23T08:21:51.396Z,2.10
2022-12-23T08:24:19.261Z,2.20
2022-12-23T08:26:47.189Z,2.40
2022-12-23T08:29:15.141Z,2.27
2022-12-23T08:31:43.093Z,2.07
2022-12-23T08:34:11.368Z,2.10
2022-12-23T08:36:40.898Z,1.83
2022-12-23T08:39:11.203Z,2.03
2022-12-23T08:41:41.488Z,2.27
2022-12-23T08:44:10.403Z,2.07
2022-12-23T08:46:38.941Z,2.57
2022-12-23T08:49:08.105Z,2.00
2022-12-23T08:51:37.537Z,2.10
2022-12-23T08:54:07.388Z,2.40
2022-12-23T08:56:37.029Z,2.47
2022-12-23T08:59:05.415Z,2.40
2022-12-23T09:01:34.983Z,2.27
2022-12-23T09:04:04.530Z,2.20
2022-12-23T09:06:35.551Z,2.30
2022-12-23T09:09:04.035Z,1.63
2022-12-23T09:11:33.815Z,1.50
2022-12-23T09:14:02.861Z,1.37
2022-12-23T09:16:31.181Z,1.53
2022-12-23T09:18:59.306Z,1.37
2022-12-23T09:21:27.450Z,1.40
2022-12-23T09:23:55.512Z,1.47
2022-12-23T09:26:24.954Z,1.53
2022-12-23T09:28:54.838Z,1.43
2022-12-23T09:31:23.435Z,1.60
2022-12-23T09:33:53.705Z,1.50
2022-12-23T09:36:23.279Z,1.53
2022-12-23T09:38:55.704Z,1.70
2022-12-23T09:41:36.055Z,1.27
2022-12-23T09:44:27.694Z,2.00
2022-12-23T09:47:00.890Z,1.57
2022-12-23T09:49:29.054Z,1.40
2022-12-23T09:52:01.393Z,1.60
2022-12-23T09:54:33.091Z,2.00
2022-12-23T09:57:04.826Z,1.43
2022-12-23T09:59:52.096Z,1.70
2022-12-23T10:02:31.547Z,1.60
2022-12-23T10:05:06.232Z,1.53
2022-12-23T10:07:41.069Z,1.43
2022-12-23T10:10:17.668Z,1.53
2022-12-23T10:12:49.641Z,1.67
2022-12-23T10:15:22.655Z,1.47
2022-12-23T10:17:54.833Z,1.40
2022-12-23T10:20:32.788Z,1.70
2022-12-23T10:23:01.274Z,1.87
2022-12-23T10:25:34.433Z,1.67
2022-12-23T10:28:02.471Z,2.00
2022-12-23T10:30:57.448Z,2.00
2022-12-23T10:33:24.714Z,1.87
2022-12-23T10:36:01.408Z,1.73
2022-12-23T10:38:48.604Z,1.70
2022-12-23T10:41:26.481Z,2.07
2022-12-23T10:44:09.906Z,1.87
2022-12-23T10:46:50.461Z,2.10
2022-12-23T10:49:26.469Z,2.30
2022-12-23T10:51:59.046Z,2.13
2022-12-23T10:54:31.708Z,1.90
2022-12-23T10:57:00.240Z,2.00
2022-12-23T10:59:30.332Z,1.80
2022-12-23T11:02:06.612Z,2.00
2022-12-23T11:04:41.298Z,1.90
2022-12-23T11:07:42.822Z,1.80
2022-12-23T11:10:02.304Z,2.07
2022-12-23T11:12:42.659Z,2.10
2022-12-23T11:15:28.347Z,2.77
2022-12-23T11:18:03.100Z,2.20
2022-12-23T11:20:32.033Z,2.10
2022-12-23T11:23:02.257Z,2.40
2022-12-23T11:25:36.748Z,2.60
2022-12-23T11:28:08.394Z,2.87
2022-12-23T11:30:40.240Z,2.47
2022-12-23T11:33:22.053Z,2.70
2022-12-23T11:36:01.919Z,2.40
2022-12-23T11:38:30.123Z,2.30
2022-12-23T11:40:58.621Z,2.70
2022-12-23T11:43:30.720Z,1.87
2022-12-23T11:46:19.333Z,2.37
2022-12-23T11:48:54.354Z,2.03
2022-12-23T11:51:27.663Z,2.07
2022-12-23T11:54:01.904Z,2.60
2022-12-23T11:56:35.668Z,2.43
2022-12-23T11:59:06.805Z,2.17
2022-12-23T12:01:35.399Z,2.23
2022-12-23T12:04:08.347Z,2.70
2022-12-23T12:06:42.791Z,2.50
2022-12-23T12:09:14.007Z,2.60
2022-12-23T12:11:49.554Z,2.50
2022-12-23T12:14:23.559Z,2.27
2022-12-23T12:16:57.774Z,2.00
2022-12-23T12:19:31.301Z,2.00
2022-12-23T12:22:06.416Z,2.20
2022-12-23T12:24:41.247Z,2.00
2022-12-23T12:27:11.453Z,1.70
2022-12-23T12:29:46.701Z,2.20
2022-12-23T12:32:21.951Z,1.60
2022-12-23T12:34:56.568Z,1.30
2022-12-23T12:37:32.826Z,1.50
2022-12-23T12:40:03.657Z,1.67
2022-12-23T12:42:39.100Z,1.43
2022-12-23T12:45:17.488Z,1.60
2022-12-23T12:47:54.948Z,1.50
2022-12-23T12:50:30.216Z,1.30
2022-12-23T12:53:03.032Z,1.30
2022-12-23T12:58:20.454Z,1.70
2022-12-23T13:01:02.005Z,1.60
2022-12-23T13:03:52.291Z,1.50
2022-12-23T13:06:27.543Z,1.90
2022-12-23T13:09:05.226Z,2.07
2022-12-23T13:11:45.053Z,1.80
2022-12-23T13:14:25.836Z,2.17
2022-12-23T13:17:01.229Z,2.30
2022-12-23T13:19:37.569Z,2.63
2022-12-23T13:22:10.117Z,2.23
2022-12-23T13:24:53.038Z,2.50
2022-12-23T13:27:24.165Z,1.97
2022-12-23T13:30:05.364Z,2.33
2022-12-23T13:32:59.760Z,2.20
2022-12-23T13:35:43.375Z,2.00
2022-12-23T13:38:26.571Z,2.10
2022-12-23T13:41:04.563Z,1.80
2022-12-23T13:43:41.241Z,1.70
2022-12-23T13:46:16.796Z,1.93
2022-12-23T13:48:53.935Z,2.23
2022-12-23T13:51:29.018Z,2.10
2022-12-23T13:54:05.274Z,1.80
2022-12-23T13:56:40.884Z,1.87
2022-12-23T13:59:12.133Z,2.00
2022-12-23T14:01:46.866Z,1.83
2022-12-23T14:04:36.762Z,2.03
2022-12-23T14:07:18.132Z,1.97
2022-12-23T14:09:52.959Z,1.77
2022-12-23T14:12:26.388Z,1.70
2022-12-23T14:15:24.962Z,1.90
2022-12-23T14:18:05.260Z,1.73
2022-12-23T14:20:44.363Z,2.03
2022-12-23T14:23:27.058Z,1.80
2022-12-23T14:26:34.981Z,2.00
2022-12-23T14:29:25.715Z,2.00
2022-12-23T14:31:56.984Z,2.17
2022-12-23T14:34:29.263Z,1.93
2022-12-23T14:37:35.454Z,2.00
2022-12-23T14:40:36.636Z,2.33
2022-12-23T14:43:28.407Z,1.80
2022-12-23T14:45:57.855Z,1.53
2022-12-23T14:49:39.619Z,1.70
2022-12-23T14:52:46.027Z,1.83
2022-12-23T14:55:42.959Z,1.70
2022-12-23T14:58:31.942Z,1.77
2022-12-23T15:01:03.905Z,1.63
2022-12-23T15:03:36.357Z,1.80
2022-12-23T15:06:07.488Z,2.10
2022-12-23T15:08:39.631Z,1.30
2022-12-23T15:11:10.281Z,2.03
2022-12-23T15:13:39.908Z,2.27
2022-12-23T15:16:08.470Z,2.10
2022-12-23T15:18:36.450Z,1.80
2022-12-23T15:21:12.369Z,2.47
2022-12-23T15:23:49.256Z,1.97
2022-12-23T15:26:17.634Z,2.10
2022-12-23T15:28:46.892Z,2.13
2022-12-23T15:31:26.128Z,2.50
2022-12-23T15:34:04.337Z,2.30
2022-12-23T15:36:36.271Z,2.40
2022-12-23T15:39:10.642Z,2.57
2022-12-23T15:41:44.600Z,2.00
2022-12-23T15:44:19.773Z,1.90
2022-12-23T15:46:49.185Z,2.40
2022-12-23T15:49:17.837Z,2.20
2022-12-23T15:54:40.952Z,2.10
2022-12-23T15:57:08.963Z,1.90
2022-12-23T15:59:40.042Z,1.87
2022-12-23T16:05:06.838Z,1.90
2022-12-23T16:07:36.834Z,2.07
2022-12-23T16:10:14.808Z,2.00
2022-12-23T16:12:44.244Z,1.50
2022-12-23T16:15:26.895Z,1.43
2022-12-23T16:18:12.772Z,1.20
2022-12-23T16:20:43.676Z,1.13
2022-12-23T16:23:13.516Z,1.17
2022-12-23T16:25:50.216Z,0.90
2022-12-23T16:28:24.190Z,1.03
2022-12-23T16:30:56.438Z,1.30
2022-12-23T16:33:35.045Z,0.90
2022-12-23T16:36:21.029Z,1.20
2022-12-23T16:38:51.009Z,1.50
2022-12-23T16:41:20.844Z,1.10
2022-12-23T16:43:52.455Z,1.13
2022-12-23T16:46:23.869Z,1.10
2022-12-23T16:48:55.541Z,0.90
2022-12-23T16:51:24.591Z,0.90
2022-12-23T16:53:57.637Z,1.80
2022-12-23T16:56:29.152Z,1.40
2022-12-23T16:58:57.065Z,1.07
2022-12-23T17:01:30.100Z,1.50
2022-12-23T17:03:58.124Z,1.50
2022-12-23T17:06:26.736Z,1.70
2022-12-23T17:08:56.614Z,2.20
2022-12-23T17:11:27.216Z,2.10
2022-12-23T17:14:01.429Z,1.87
2022-12-23T17:16:33.459Z,2.13
2022-12-23T17:19:01.576Z,1.83
2022-12-23T17:21:32.306Z,2.40
2022-12-23T17:24:04.123Z,1.73
2022-12-23T17:26:32.185Z,2.10
2022-12-23T17:29:00.119Z,2.37
2022-12-23T17:31:28.112Z,2.20
2022-12-23T17:33:57.400Z,2.13
2022-12-23T17:36:25.481Z,2.27
2022-12-23T17:38:53.386Z,2.30
2022-12-23T17:41:26.630Z,2.27
2022-12-23T17:43:54.690Z,2.30
2022-12-23T17:46:22.897Z,3.00
2022-12-23T17:48:50.765Z,2.20
2022-12-23T17:51:22.483Z,2.60
2022-12-23T17:53:57.402Z,1.87
2022-12-23T17:56:27.897Z,2.50
2022-12-23T17:58:55.847Z,2.53
2022-12-23T18:01:26.091Z,2.10
2022-12-23T18:03:54.573Z,2.23
2022-12-23T18:06:25.141Z,2.30
2022-12-23T18:08:53.285Z,2.40
2022-12-23T18:11:27.257Z,2.73
2022-12-23T18:13:55.577Z,3.17
2022-12-23T18:16:23.805Z,2.93
2022-12-23T18:18:51.852Z,3.23
2022-12-23T18:21:24.562Z,2.57
2022-12-23T18:23:53.693Z,3.00
2022-12-23T18:26:21.948Z,2.47
2022-12-23T18:28:51.215Z,3.07
2022-12-23T18:31:21.587Z,3.33
2022-12-23T18:33:49.618Z,3.07
2022-12-23T18:36:24.070Z,2.70
2022-12-23T18:38:52.894Z,3.47
2022-12-23T18:41:21.765Z,3.10
2022-12-23T18:43:50.091Z,3.40
2022-12-23T18:46:19.885Z,3.07
2022-12-23T18:48:48.619Z,2.93
2022-12-23T18:51:18.418Z,3.30
2022-12-23T18:53:48.663Z,2.80
2022-12-23T18:56:19.075Z,2.70
2022-12-23T18:58:47.101Z,2.40
2022-12-23T19:01:15.988Z,2.57
2022-12-23T19:03:45.025Z,2.83
2022-12-23T19:06:14.918Z,2.90
2022-12-23T19:08:44.473Z,2.63
2022-12-23T19:11:15.520Z,3.30
2022-12-23T19:13:43.647Z,2.60
2022-12-23T19:16:15.002Z,2.83
2022-12-23T19:18:43.272Z,2.70
2022-12-23T19:21:11.333Z,2.87
2022-12-23T19:23:40.893Z,2.97
2022-12-23T19:26:10.207Z,3.37
2022-12-23T19:28:41.360Z,2.77
2022-12-23T19:31:10.012Z,2.60
2022-12-23T19:33:38.509Z,2.97
2022-12-23T19:36:10.744Z,2.73
2022-12-23T19:38:39.007Z,2.70
2022-12-23T19:41:07.353Z,2.50
2022-12-23T19:43:35.706Z,3.00
2022-12-23T19:46:07.404Z,3.17
2022-12-23T19:48:35.838Z,2.90
2022-12-23T19:51:05.937Z,3.73
2022-12-23T19:53:34.459Z,3.13
2022-12-23T19:56:04.655Z,2.77
2022-12-23T19:58:34.070Z,3.17
2022-12-23T20:01:12.409Z,2.47
2022-12-23T20:03:41.206Z,3.33
2022-12-23T20:06:15.364Z,2.70
2022-12-23T20:08:43.812Z,3.03
2022-12-23T20:11:14.796Z,3.00
2022-12-23T20:13:42.716Z,2.73
2022-12-23T20:16:13.197Z,3.63
2022-12-23T20:18:41.286Z,2.73
2022-12-23T20:21:09.163Z,2.40
2022-12-23T20:23:37.280Z,2.87
2022-12-23T20:26:05.791Z,2.87
2022-12-23T20:28:33.910Z,2.73
2022-12-23T20:31:07.339Z,2.37
2022-12-23T20:33:37.448Z,2.97
2022-12-23T20:36:07.661Z,2.90
2022-12-23T20:38:36.042Z,3.37
2022-12-23T20:41:04.034Z,2.63
2022-12-23T20:43:34.228Z,2.67
2022-12-23T20:46:02.201Z,3.03
2022-12-23T20:48:34.015Z,2.23
2022-12-23T20:51:07.366Z,2.80
2022-12-23T20:53:35.738Z,2.83
2022-12-23T20:56:05.387Z,2.70
2022-12-23T20:58:51.057Z,2.23
2022-12-23T21:01:19.161Z,2.23
2022-12-23T21:03:47.077Z,2.33
2022-12-23T21:06:16.451Z,2.60
2022-12-23T21:08:44.349Z,3.00
2022-12-23T21:11:12.341Z,2.23
2022-12-23T21:13:40.565Z,2.77
2022-12-23T21:16:12.041Z,2.30
2022-12-23T21:18:41.971Z,2.47
2022-12-23T21:21:09.986Z,2.20
2022-12-23T21:23:40.879Z,2.87
2022-12-23T21:26:11.953Z,2.70
2022-12-23T21:28:40.907Z,2.53
2022-12-23T21:31:10.170Z,3.17
2022-12-23T21:33:39.831Z,2.40
2022-12-23T21:36:10.340Z,2.70
2022-12-23T21:38:43.880Z,2.60
2022-12-23T21:41:14.837Z,2.73
2022-12-23T21:43:42.796Z,2.70
2022-12-23T21:46:12.929Z,2.87
2022-12-23T21:48:41.414Z,2.70
2022-12-23T21:51:12.680Z,2.70
2022-12-23T21:53:42.761Z,2.33
2022-12-23T21:56:12.347Z,2.87
2022-12-23T21:58:41.383Z,2.70
2022-12-23T22:01:10.728Z,2.50
2022-12-23T22:03:39.540Z,2.17
2022-12-23T22:06:10.350Z,3.00
2022-12-23T22:08:39.729Z,2.47
2022-12-23T22:11:12.869Z,3.27
2022-12-23T22:13:41.472Z,2.90
2022-12-23T22:16:10.786Z,3.33
2022-12-23T22:18:39.312Z,2.97
2022-12-23T22:21:09.029Z,2.77
2022-12-23T22:23:37.314Z,3.03
2022-12-23T22:26:05.765Z,2.53
2022-12-23T22:28:36.849Z,2.53
2022-12-23T22:31:06.866Z,2.97
2022-12-23T22:33:35.600Z,2.27
2022-12-23T22:36:03.566Z,2.47
2022-12-23T22:38:31.521Z,2.73
2022-12-23T22:40:59.421Z,3.00
2022-12-23T22:43:27.317Z,2.63
2022-12-23T22:46:01.287Z,2.93
2022-12-23T22:48:30.352Z,2.27
2022-12-23T22:51:03.436Z,3.03
2022-12-23T22:53:31.661Z,2.43
2022-12-23T22:55:59.926Z,2.70
2022-12-23T22:58:28.843Z,2.90
2022-12-23T23:00:57.039Z,3.30
2022-12-23T23:03:27.168Z,3.37
2022-12-23T23:06:07.716Z,2.87
2022-12-23T23:08:36.099Z,2.20
2022-12-23T23:11:05.893Z,2.97
2022-12-23T23:13:35.699Z,2.97
2022-12-23T23:16:04.314Z,3.27
2022-12-23T23:18:33.670Z,3.47
2022-12-23T23:21:01.783Z,3.27
2022-12-23T23:23:29.686Z,3.70
2022-12-23T23:25:57.573Z,2.93
2022-12-23T23:28:25.527Z,3.03
2022-12-23T23:31:10.016Z,3.33
2022-12-23T23:33:42.605Z,2.97
2022-12-23T23:36:10.906Z,3.17
2022-12-23T23:38:39.262Z,3.53
2022-12-23T23:41:07.115Z,3.13
2022-12-23T23:43:34.985Z,3.40
2022-12-23T23:46:03.115Z,3.30
2022-12-23T23:48:30.973Z,3.30
2022-12-23T23:51:06.474Z,3.77
2022-12-23T23:53:35.579Z,3.50
2022-12-23T23:56:05.788Z,2.53
2022-12-23T23:58:34.754Z,3.10
